Time;durP1;ratioP1;P1;durP2;ratioP2;P2;SDS_P1;SDS_P2;PMS_P1;PMS_P2;Temp;Humidity;BMP_temperature;BMP_pressure;BME280_temperature;BME280_humidity;BME280_pressure;Samples;Min_cycle;Max_cycle;Signal;HPM_P1;HPM_P2
2022/04/13 00:01:01;;;;;;;2.13;1.92;;;;;;;10.31;67.88;98197.34;10433031;28;20168;-57
2022/04/13 00:06:05;;;;;;;2.10;1.83;;;;;;;10.29;68.78;98199.34;10429637;28;20060;-56
2022/04/13 00:11:08;;;;;;;2.38;1.95;;;;;;;10.25;68.53;98197.16;10415937;28;20049;-59
2022/04/13 00:16:12;;;;;;;2.68;1.80;;;;;;;10.18;70.26;98197.81;10248147;23;5002564;-59
2022/04/13 00:21:15;;;;;;;3.63;1.73;;;;;;;10.14;70.74;98201.00;10381964;28;20092;-61
2022/04/13 00:26:18;;;;;;;4.28;2.00;;;;;;;10.06;72.14;98193.72;10381810;28;20046;-61
2022/04/13 00:31:23;;;;;;;3.30;2.10;;;;;;;10.01;72.00;98179.94;10337995;28;20049;-63
2022/04/13 00:36:26;;;;;;;2.97;2.00;;;;;;;9.98;73.13;98180.25;10354173;28;20049;-63
2022/04/13 00:41:29;;;;;;;4.22;2.08;;;;;;;9.94;73.30;98178.88;10354118;28;20072;-62
2022/04/13 00:46:34;;;;;;;2.38;1.65;;;;;;;9.90;73.98;98186.44;10354633;28;20049;-62
2022/04/13 00:51:38;;;;;;;2.88;2.00;;;;;;;9.86;73.70;98188.63;10353861;28;20044;-60
2022/04/13 00:56:42;;;;;;;2.25;1.83;;;;;;;9.84;73.87;98182.56;10351319;28;20429;-60
2022/04/13 01:01:49;;;;;;;2.08;1.77;;;;;;;9.80;75.77;98183.91;10353492;28;20133;-60
2022/04/13 01:06:53;;;;;;;2.67;2.08;;;;;;;9.73;77.38;98190.09;10353048;28;20425;-60
2022/04/13 01:11:56;;;;;;;1.77;1.67;;;;;;;9.68;77.06;98179.81;10353070;28;20045;-60
2022/04/13 01:17:02;;;;;;;2.78;2.05;;;;;;;9.64;76.73;98184.66;10352408;28;21188;-58
2022/04/13 01:22:18;;;;;;;2.92;1.80;;;;;;;9.60;78.56;98174.38;10353020;28;20482;-60
2022/04/13 01:27:21;;;;;;;2.03;1.80;;;;;;;9.53;78.92;98184.94;10332383;28;20054;-60
2022/04/13 01:32:24;;;;;;;4.25;1.80;;;;;;;9.52;78.90;98181.41;10352055;28;20067;-60
2022/04/13 01:37:29;;;;;;;2.20;1.83;;;;;;;9.50;78.42;98182.59;10351571;28;20054;-60
2022/04/13 01:42:32;;;;;;;2.42;1.90;;;;;;;9.48;79.50;98190.81;10351754;28;20168;-60
2022/04/13 01:47:35;;;;;;;4.53;2.05;;;;;;;9.50;78.29;98182.59;10352234;28;20054;-59
2022/04/13 01:52:39;;;;;;;2.15;1.63;;;;;;;9.49;78.50;98188.97;10351088;28;20056;-59
2022/04/13 01:57:43;;;;;;;2.35;1.75;;;;;;;9.51;75.86;98195.03;10353408;28;20053;-60
2022/04/13 02:02:46;;;;;;;2.17;1.70;;;;;;;9.54;75.41;98198.25;10348001;28;20161;-60
2022/04/13 02:07:51;;;;;;;2.35;1.75;;;;;;;9.55;76.83;98191.88;10352058;28;20050;-60
2022/04/13 02:12:54;;;;;;;2.35;1.80;;;;;;;9.56;75.00;98200.75;10350034;28;20038;-61
2022/04/13 02:17:58;;;;;;;4.07;1.80;;;;;;;9.54;75.75;98203.63;10333377;28;20061;-61
2022/04/13 02:23:02;;;;;;;2.38;1.90;;;;;;;9.53;77.09;98199.25;10349790;28;20177;-60
2022/04/13 02:28:07;;;;;;;2.33;1.70;;;;;;;9.48;77.48;98198.88;10351517;28;20049;-62
2022/04/13 02:33:10;;;;;;;2.88;1.90;;;;;;;9.40;79.31;98193.47;10348358;28;20038;-62
2022/04/13 02:38:16;;;;;;;2.20;1.67;;;;;;;9.34;78.93;98192.25;10333513;28;20533;-60
2022/04/13 02:43:19;;;;;;;2.35;1.88;;;;;;;9.34;78.11;98189.56;10350527;28;20046;-62
2022/04/13 02:48:22;;;;;;;4.85;1.90;;;;;;;9.33;76.97;98185.19;10351818;28;20483;-61
2022/04/13 02:53:28;;;;;;;1.92;1.70;;;;;;;9.31;77.98;98189.03;10351821;28;20065;-61
2022/04/13 02:58:32;;;;;;;4.80;1.67;;;;;;;9.29;78.91;98188.34;10352472;28;20050;-60
2022/04/13 03:03:35;;;;;;;2.25;1.75;;;;;;;9.25;81.56;98191.34;10351050;28;20133;-58
2022/04/13 03:08:39;;;;;;;1.67;1.58;;;;;;;9.23;81.35;98185.28;10348912;28;20136;-57
2022/04/13 03:13:42;;;;;;;3.03;1.70;;;;;;;9.25;80.50;98193.22;10351534;28;20541;-59
2022/04/13 03:18:46;;;;;;;2.15;1.70;;;;;;;9.25;81.60;98190.53;10351022;28;20395;-57
2022/04/13 03:23:50;;;;;;;4.38;1.75;;;;;;;9.22;82.57;98189.00;10338729;28;20046;-59
2022/04/13 03:28:54;;;;;;;2.10;1.90;;;;;;;9.19;82.39;98181.25;10351329;28;20052;-58
2022/04/13 03:33:57;;;;;;;2.45;1.80;;;;;;;9.14;86.13;98183.56;10349660;28;20042;-58
2022/04/13 03:39:01;;;;;;;2.88;2.00;;;;;;;9.13;84.47;98175.66;10348901;28;20104;-58
2022/04/13 03:44:05;;;;;;;3.45;2.00;;;;;;;9.18;84.21;98182.25;10349138;28;20048;-59
2022/04/13 03:49:08;;;;;;;3.35;1.95;;;;;;;9.13;85.32;98183.72;10349712;28;20057;-60
2022/04/13 03:54:13;;;;;;;2.83;1.88;;;;;;;9.12;84.14;98188.22;10349389;28;20088;-61
2022/04/13 03:59:16;;;;;;;2.20;2.00;;;;;;;9.09;87.03;98186.72;10354003;28;20173;-62
2022/04/13 04:04:19;;;;;;;4.30;2.10;;;;;;;9.05;88.10;98189.88;10355874;28;20045;-61
2022/04/13 04:09:23;;;;;;;2.83;1.80;;;;;;;9.02;87.97;98191.03;10353367;28;21263;-62
2022/04/13 04:14:26;;;;;;;2.95;2.03;;;;;;;9.02;86.91;98190.19;10337795;28;20045;-55
2022/04/13 04:19:30;;;;;;;4.03;2.20;;;;;;;9.02;88.54;98199.09;10355930;28;20050;-57
2022/04/13 04:24:34;;;;;;;2.10;1.90;;;;;;;9.01;88.32;98193.88;10355475;28;20046;-61
2022/04/13 04:29:37;;;;;;;2.40;1.90;;;;;;;8.96;90.65;98190.81;10356369;28;20068;-57
2022/04/13 04:34:40;;;;;;;2.33;1.80;;;;;;;8.87;92.14;98197.97;10355452;28;20046;-58
2022/04/13 04:39:45;;;;;;;3.38;2.30;;;;;;;8.96;88.30;98191.66;10355300;28;20041;-55
2022/04/13 04:44:48;;;;;;;3.47;2.20;;;;;;;8.96;90.23;98194.34;10353505;28;20054;-59
2022/04/13 04:49:51;;;;;;;2.50;2.08;;;;;;;8.94;94.24;98197.19;10354781;28;20049;-56
2022/04/13 04:54:56;;;;;;;2.88;2.13;;;;;;;8.93;93.28;98200.06;10354102;28;20054;-58
2022/04/13 04:59:59;;;;;;;2.22;2.00;;;;;;;8.94;92.96;98213.31;10349730;28;20054;-58
2022/04/13 05:05:02;;;;;;;2.53;2.20;;;;;;;9.03;90.77;98208.00;10351417;28;20040;-59
2022/04/13 05:10:08;;;;;;;2.30;2.08;;;;;;;9.02;94.19;98212.53;10352560;28;20045;-55
2022/04/13 05:15:13;;;;;;;3.42;2.17;;;;;;;9.06;92.13;98219.28;10349112;28;20050;-57
2022/04/13 05:20:16;;;;;;;2.53;2.10;;;;;;;9.01;97.50;98218.06;10356076;28;20069;-56
2022/04/13 05:25:20;;;;;;;3.33;2.13;;;;;;;8.91;100.00;98227.06;10354547;28;20117;-57
2022/04/13 05:30:38;;;;;;;4.55;2.17;;;;;;;8.93;97.26;98232.28;10354024;28;20046;-56
2022/04/13 05:35:41;;;;;;;2.55;2.05;;;;;;;8.97;98.06;98232.81;10352482;28;20054;-57
2022/04/13 05:40:46;;;;;;;2.42;2.20;;;;;;;8.98;98.68;98238.03;10361212;28;20046;-62
2022/04/13 05:45:49;;;;;;;2.40;2.13;;;;;;;8.98;100.00;98247.94;10351624;28;20517;-58
2022/04/13 05:50:52;;;;;;;3.17;2.20;;;;;;;9.02;100.00;98257.38;10352731;28;20041;-62
2022/04/13 05:55:56;;;;;;;3.75;2.35;;;;;;;9.06;100.00;98251.53;10351875;28;20502;-59
2022/04/13 06:01:00;;;;;;;2.97;2.20;;;;;;;9.12;100.00;98255.44;10354066;28;20116;-60
2022/04/13 06:06:03;;;;;;;3.40;2.40;;;;;;;9.21;100.00;98280.53;10350481;28;20081;-63
2022/04/13 06:11:07;;;;;;;3.80;2.20;;;;;;;9.36;97.48;98283.50;10351632;28;20042;-62
2022/04/13 06:16:10;;;;;;;6.78;2.35;;;;;;;9.47;100.00;98275.16;10350993;28;20061;-63
2022/04/13 06:21:13;;;;;;;4.90;2.25;;;;;;;9.61;95.15;98273.75;10350766;28;20041;-61
2022/04/13 06:26:18;;;;;;;3.08;2.10;;;;;;;9.74;96.78;98278.69;10351716;28;20054;-63
2022/04/13 06:31:21;;;;;;;3.00;2.70;;;;;;;9.85;96.09;98278.41;10352900;28;20044;-62
2022/04/13 06:36:25;;;;;;;3.72;2.90;;;;;;;10.01;94.31;98276.81;10349960;28;20049;-64
2022/04/13 06:41:29;;;;;;;4.55;2.70;;;;;;;10.14;94.15;98277.22;10350905;28;20146;-64
2022/04/13 06:46:36;;;;;;;3.58;2.92;;;;;;;10.40;92.23;98287.13;10345577;28;20198;-60
2022/04/13 06:51:39;;;;;;;2.88;2.58;;;;;;;10.66;88.20;98286.16;10349249;28;20045;-60
2022/04/13 06:56:44;;;;;;;4.65;2.50;;;;;;;10.87;87.71;98283.00;10352080;28;20081;-59
2022/04/13 07:01:47;;;;;;;5.45;2.60;;;;;;;11.09;84.81;98288.72;10352112;28;21327;-64
2022/04/13 07:06:50;;;;;;;2.47;2.28;;;;;;;11.30;82.61;98292.75;10347232;28;20049;-63
2022/04/13 07:11:54;;;;;;;3.33;2.25;;;;;;;11.54;81.82;98294.63;10354521;28;20050;-58
2022/04/13 07:16:57;;;;;;;5.07;2.30;;;;;;;11.72;82.57;98289.84;10351250;28;20053;-62
2022/04/13 07:22:01;;;;;;;3.53;2.28;;;;;;;11.93;80.41;98293.00;10348064;28;20414;-62
2022/04/13 07:27:12;;;;;;;3.50;2.42;;;;;;;12.23;73.85;98294.13;10346827;28;20083;-58
2022/04/13 07:32:15;;;;;;;2.78;2.22;;;;;;;12.53;80.17;98293.47;10350742;28;20038;-54
2022/04/13 07:37:18;;;;;;;2.42;2.10;;;;;;;12.78;76.76;98292.31;10358131;28;20041;-59
2022/04/13 07:42:23;;;;;;;3.38;2.03;;;;;;;13.05;70.81;98300.91;10358875;28;20041;-63
2022/04/13 07:47:26;;;;;;;6.88;2.40;;;;;;;13.32;70.11;98303.25;10340287;28;20060;-58
2022/04/13 07:52:33;;;;;;;3.13;1.60;;;;;;;13.60;68.11;98305.41;10358013;28;20418;-59
2022/04/13 07:57:38;;;;;;;4.63;1.83;;;;;;;13.90;61.60;98310.88;10337459;28;20058;-63
2022/04/13 08:02:42;;;;;;;2.20;1.67;;;;;;;14.20;60.09;98316.28;10358301;28;20422;-61
2022/04/13 08:07:45;;;;;;;2.20;1.67;;;;;;;14.40;57.81;98320.13;10358329;28;20073;-58
2022/04/13 08:12:50;;;;;;;3.25;1.70;;;;;;;14.64;56.53;98324.38;10356903;28;20048;-56
2022/04/13 08:17:53;;;;;;;4.80;1.73;;;;;;;14.83;57.19;98321.28;10354437;28;20127;-62
2022/04/13 08:22:57;;;;;;;2.25;1.70;;;;;;;14.99;56.73;98321.06;10356975;28;20219;-62
2022/04/13 08:28:02;;;;;;;3.03;1.60;;;;;;;15.27;57.28;98317.56;10354036;28;20126;-60
2022/04/13 08:33:05;;;;;;;1.70;1.40;;;;;;;15.47;54.95;98317.75;10357419;28;20046;-61
2022/04/13 08:38:08;;;;;;;4.45;1.70;;;;;;;15.58;53.81;98313.66;10336875;28;20060;-64
2022/04/13 08:43:14;;;;;;;2.90;1.50;;;;;;;15.78;54.06;98323.84;10355352;28;20050;-63
2022/04/13 08:48:22;;;;;;;2.30;1.50;;;;;;;15.98;55.32;98333.00;10355338;28;20046;-62
2022/04/13 08:53:29;;;;;;;2.38;1.17;;;;;;;16.10;56.02;98327.00;10351787;28;20053;-63
2022/04/13 08:58:41;;;;;;;2.15;1.30;;;;;;;16.23;54.56;98329.00;10354674;28;20071;-61
2022/04/13 09:03:49;;;;;;;2.10;1.40;;;;;;;16.36;54.01;98322.78;10349426;28;20041;-62
2022/04/13 09:08:54;;;;;;;1.63;1.20;;;;;;;16.49;54.36;98329.09;10352673;28;20528;-63
2022/04/13 09:14:00;;;;;;;4.00;1.35;;;;;;;16.72;54.49;98327.13;10352297;28;20089;-60
2022/04/13 09:19:04;;;;;;;2.90;1.20;;;;;;;16.91;55.09;98329.06;10351515;28;20057;-63
2022/04/13 09:24:10;;;;;;;2.75;1.10;;;;;;;17.06;51.35;98328.09;10350706;28;20050;-60
2022/04/13 09:29:23;;;;;;;2.28;1.20;;;;;;;17.22;53.65;98335.88;10353293;28;20045;-62
2022/04/13 09:34:27;;;;;;;1.95;1.20;;;;;;;17.45;53.98;98341.97;10353902;28;20128;-61
2022/04/13 09:39:33;;;;;;;1.10;1.00;;;;;;;17.59;51.65;98338.22;10357736;28;20700;-63
2022/04/13 09:44:41;;;;;;;2.15;1.17;;;;;;;17.74;50.33;98340.72;10351112;28;20049;-61
2022/04/13 09:49:46;;;;;;;2.95;1.13;;;;;;;17.96;49.95;98335.06;10350799;28;20176;-62
2022/04/13 09:54:50;;;;;;;1.30;1.00;;;;;;;18.10;50.57;98335.94;10349339;28;20513;-64
2022/04/13 09:59:59;;;;;;;4.03;0.90;;;;;;;18.24;48.95;98337.56;10362178;28;20064;-62
2022/04/13 10:05:03;;;;;;;1.83;1.00;;;;;;;18.36;48.40;98328.72;10349271;28;20159;-60
2022/04/13 10:10:22;;;;;;;2.28;1.02;;;;;;;18.51;48.36;98328.47;10352680;28;20060;-58
2022/04/13 10:15:31;;;;;;;2.95;1.00;;;;;;;18.61;49.54;98321.50;10350358;28;20192;-61
2022/04/13 10:20:43;;;;;;;2.75;0.95;;;;;;;18.74;47.53;98320.63;10352561;28;20049;-58
2022/04/13 10:25:46;;;;;;;2.58;0.80;;;;;;;18.87;45.78;98318.88;10350545;28;20426;-60
2022/04/13 10:30:51;;;;;;;1.30;0.93;;;;;;;18.98;45.53;98311.91;10352088;28;20049;-60
2022/04/13 10:35:56;;;;;;;1.23;0.93;;;;;;;19.03;45.67;98303.91;10350057;28;20057;-59
2022/04/13 10:40:59;;;;;;;2.22;0.80;;;;;;;19.18;44.84;98303.59;10351213;28;20537;-59
2022/04/13 10:46:04;;;;;;;1.60;0.80;;;;;;;19.30;45.57;98304.59;10353057;28;20048;-59
2022/04/13 10:51:12;;;;;;;1.13;1.00;;;;;;;19.45;45.79;98298.78;10354586;28;20054;-58
2022/04/13 10:56:22;;;;;;;1.75;1.20;;;;;;;19.58;45.37;98289.63;10171588;28;5002157;-60
2022/04/13 11:01:31;;;;;;;1.45;0.80;;;;;;;19.93;46.89;98291.91;10355538;28;20095;-59
2022/04/13 11:06:36;;;;;;;0.90;0.70;;;;;;;20.07;46.72;98289.00;10354647;28;20042;-60
2022/04/13 11:11:40;;;;;;;2.42;0.80;;;;;;;20.15;45.25;98288.72;10360009;28;20506;-60
2022/04/13 11:16:46;;;;;;;1.42;0.80;;;;;;;20.30;44.13;98297.38;10346521;28;20120;-60
2022/04/13 11:22:10;;;;;;;0.88;0.70;;;;;;;20.49;42.95;98291.91;10363114;28;20529;-60
2022/04/13 11:27:14;;;;;;;3.45;0.80;;;;;;;20.54;43.01;98289.31;10359096;28;20050;-60
2022/04/13 11:32:25;;;;;;;1.48;0.88;;;;;;;20.68;44.01;98294.63;10363249;28;20057;-59
2022/04/13 11:37:44;;;;;;;3.50;0.87;;;;;;;20.94;41.66;98288.84;10355096;28;20065;-59
2022/04/13 11:42:54;;;;;;;1.25;0.75;;;;;;;21.13;42.94;98277.81;10349032;28;20220;-60
2022/04/13 11:48:03;;;;;;;3.88;0.70;;;;;;;21.36;42.62;98284.41;10355063;28;20100;-60
2022/04/13 11:53:07;;;;;;;1.15;0.70;;;;;;;21.70;39.38;98282.84;10355288;28;20112;-60
2022/04/13 11:58:21;;;;;;;1.98;0.70;;;;;;;21.89;38.21;98288.19;10354359;28;20525;-62
2022/04/13 12:03:28;;;;;;;0.80;0.63;;;;;;;22.11;39.37;98296.69;10353884;28;20034;-58
2022/04/13 12:08:41;;;;;;;1.30;0.70;;;;;;;22.18;37.41;98293.81;10354831;28;20080;-57
2022/04/13 12:13:49;;;;;;;2.28;0.60;;;;;;;22.41;38.01;98835.66;10349757;28;20128;-60
2022/04/13 12:18:55;;;;;;;0.77;0.60;;;;;;;22.59;39.38;98286.47;10359471;28;20070;-59
2022/04/13 12:24:02;;;;;;;0.88;0.60;;;;;;;22.71;39.41;98282.84;10356158;28;20128;-61
2022/04/13 12:29:12;;;;;;;1.15;0.60;;;;;;;22.88;37.93;98281.00;10360167;28;20052;-61
2022/04/13 12:34:19;;;;;;;0.95;0.55;;;;;;;23.11;37.07;98279.22;10357163;28;20038;-61
2022/04/13 12:39:26;;;;;;;2.10;0.68;;;;;;;23.30;37.73;98277.13;10346434;28;20050;-58
2022/04/13 12:44:30;;;;;;;1.55;0.75;;;;;;;23.53;38.48;98278.06;10357815;28;20128;-56
2022/04/13 12:49:36;;;;;;;1.77;0.60;;;;;;;23.69;38.41;98277.22;10351592;28;20054;-61
2022/04/13 12:54:41;;;;;;;2.60;0.60;;;;;;;23.90;39.15;98277.53;10336837;28;20522;-62
2022/04/13 12:59:45;;;;;;;1.33;0.60;;;;;;;24.11;37.96;98267.69;10354390;28;20045;-61
2022/04/13 13:04:50;;;;;;;0.98;0.60;;;;;;;24.31;38.01;98269.88;10353251;28;20446;-60
2022/04/13 13:09:55;;;;;;;2.33;0.70;;;;;;;24.52;37.84;98272.88;10354461;28;20050;-59
2022/04/13 13:14:58;;;;;;;2.25;0.70;;;;;;;24.56;39.21;98273.22;10353164;28;20041;-60
2022/04/13 13:20:10;;;;;;;3.22;0.70;;;;;;;24.60;34.90;98269.72;10350795;28;20060;-58
2022/04/13 13:25:15;;;;;;;1.15;0.70;;;;;;;24.79;38.50;98269.38;10355688;28;20044;-59
2022/04/13 13:30:20;;;;;;;1.63;0.70;;;;;;;24.87;37.20;98277.19;10356405;28;20430;-60
2022/04/13 13:35:29;;;;;;;1.73;0.60;;;;;;;24.90;36.58;98278.63;10356731;28;20049;-59
2022/04/13 13:40:41;;;;;;;3.05;0.50;;;;;;;25.01;35.43;98271.28;10357652;28;20041;-56
2022/04/13 13:45:46;;;;;;;2.17;0.70;;;;;;;24.96;34.36;98271.22;10358499;28;20054;-60
2022/04/13 13:50:54;;;;;;;0.52;0.47;;;;;;;25.14;35.38;98264.53;10351440;28;20054;-63
2022/04/13 13:56:06;;;;;;;2.97;0.70;;;;;;;25.29;35.91;98263.84;10607474;27;19923;-60
2022/04/13 14:01:09;;;;;;;0.63;0.55;;;;;;;25.38;36.69;98265.00;10582815;28;20047;-62
2022/04/13 14:06:14;;;;;;;2.65;0.70;;;;;;;25.55;36.51;98259.38;10579287;27;20051;-63
2022/04/13 14:11:18;;;;;;;1.20;0.60;;;;;;;25.45;35.82;98262.06;10587186;27;20190;-61
2022/04/13 14:16:23;;;;;;;3.40;0.65;;;;;;;25.52;35.75;98255.25;10581143;28;20101;-53
2022/04/13 14:21:27;;;;;;;0.50;0.50;;;;;;;25.59;35.01;98256.94;10581785;27;20047;-62
2022/04/13 14:26:32;;;;;;;1.10;0.50;;;;;;;25.57;37.35;98248.94;10581385;27;20442;-61
2022/04/13 14:31:35;;;;;;;1.55;0.52;;;;;;;25.63;36.48;98250.66;10586102;28;20044;-59
2022/04/13 14:36:38;;;;;;;1.63;0.50;;;;;;;25.67;36.70;98251.75;10585357;28;20052;-63
2022/04/13 14:41:43;;;;;;;0.63;0.63;;;;;;;25.72;35.86;98250.16;10589485;28;20718;-64
2022/04/13 14:46:46;;;;;;;0.90;0.60;;;;;;;25.75;37.09;98253.19;10584714;27;20047;-60
2022/04/13 14:51:49;;;;;;;1.73;0.60;;;;;;;25.63;36.80;98247.03;10578453;28;20054;-62
2022/04/13 14:56:55;;;;;;;0.80;0.63;;;;;;;25.54;35.42;98255.81;10573285;28;20093;-57
2022/04/13 15:01:58;;;;;;;0.85;0.50;;;;;;;25.58;36.54;98253.34;10578488;27;20053;-61
2022/04/13 15:07:02;;;;;;;0.70;0.43;;;;;;;25.53;36.87;98251.41;10550358;28;20051;-62
2022/04/13 15:12:10;;;;;;;1.02;0.50;;;;;;;25.50;37.12;98253.84;10549388;28;20039;-62
2022/04/13 15:17:15;;;;;;;0.57;0.40;;;;;;;25.43;37.37;98256.81;10550804;27;20056;-59
2022/04/13 15:22:21;;;;;;;1.73;0.50;;;;;;;25.29;36.05;98252.81;10553905;28;20050;-59
2022/04/13 15:27:27;;;;;;;0.40;0.40;;;;;;;25.24;37.33;98254.41;10544181;28;20555;-62
2022/04/13 15:32:30;;;;;;;2.33;0.45;;;;;;;25.14;37.56;98256.25;10546366;28;20062;-61
2022/04/13 15:37:33;;;;;;;1.02;0.50;;;;;;;25.09;37.17;98257.03;10548607;28;20050;-61
2022/04/13 15:42:37;;;;;;;1.27;0.55;;;;;;;25.03;37.67;98260.81;10548094;28;20058;-61
2022/04/13 15:47:41;;;;;;;0.75;0.50;;;;;;;25.01;38.30;98263.00;10549904;28;20080;-63
2022/04/13 15:52:51;;;;;;;2.60;0.50;;;;;;;24.96;38.18;98254.69;10552321;28;20062;-63
2022/04/13 15:57:58;;;;;;;0.90;0.43;;;;;;;24.91;37.97;98269.25;10566397;27;20044;-60
2022/04/13 16:03:12;;;;;;;1.10;0.50;;;;;;;24.83;38.56;98267.78;10548006;28;20055;-65
2022/04/13 16:08:16;;;;;;;4.20;0.60;;;;;;;24.71;36.19;98254.16;10548091;28;20507;-61
2022/04/13 16:13:21;;;;;;;1.40;0.50;;;;;;;24.51;37.51;98253.88;10548529;28;20060;-60
2022/04/13 16:18:24;;;;;;;6.25;0.70;;;;;;;24.34;38.72;98251.19;10545953;28;20047;-63
2022/04/13 16:23:27;;;;;;;1.85;0.52;;;;;;;24.16;39.15;98253.19;10548602;28;20036;-66
2022/04/13 16:28:32;;;;;;;2.13;0.40;;;;;;;23.90;38.93;98254.69;10548075;28;20130;-65
2022/04/13 16:33:35;;;;;;;0.82;0.50;;;;;;;23.64;38.10;98254.28;10544009;27;20560;-62
2022/04/13 16:38:40;;;;;;;2.05;0.40;;;;;;;23.44;38.07;98263.88;10552420;28;20048;-64
2022/04/13 16:43:46;;;;;;;2.63;0.47;;;;;;;23.24;37.67;98264.34;10545351;28;20040;-64
2022/04/13 16:48:49;;;;;;;1.90;0.50;;;;;;;23.03;35.98;98252.97;10543088;28;20051;-65
2022/04/13 16:53:53;;;;;;;2.22;0.50;;;;;;;22.79;35.53;98263.25;10542410;28;20048;-65
2022/04/13 16:58:58;;;;;;;1.45;0.60;;;;;;;22.55;35.17;98262.50;10541689;28;20134;-63
2022/04/13 17:04:03;;;;;;;0.85;0.40;;;;;;;22.42;35.42;98267.19;10542451;27;20060;-64
2022/04/13 17:09:06;;;;;;;1.85;0.70;;;;;;;22.29;35.00;98264.66;10546517;28;20131;-64
2022/04/13 17:14:11;;;;;;;2.58;0.70;;;;;;;22.14;35.45;98267.91;10544452;28;20051;-65
2022/04/13 17:19:17;;;;;;;1.50;0.63;;;;;;;22.05;35.38;98269.38;10552474;27;20044;-65
2022/04/13 17:24:23;;;;;;;3.38;0.50;;;;;;;21.85;36.04;98271.41;10548800;27;20039;-66
2022/04/13 17:29:27;;;;;;;1.60;0.60;;;;;;;21.41;38.52;98270.84;10544599;28;20683;-62
2022/04/13 17:34:30;;;;;;;1.25;0.68;;;;;;;21.11;39.92;98277.19;10543955;28;20040;-64
2022/04/13 17:39:33;;;;;;;0.95;0.80;;;;;;;20.77;41.29;98277.69;10540873;28;20547;-63
2022/04/13 17:44:38;;;;;;;0.88;0.63;;;;;;;20.53;42.19;98282.16;10543768;28;20500;-65
2022/04/13 17:49:41;;;;;;;1.30;0.90;;;;;;;20.21;43.43;98281.50;10544356;28;20048;-66
2022/04/13 17:54:44;;;;;;;3.90;0.80;;;;;;;19.99;44.12;98293.72;10545282;28;20062;-66
2022/04/13 17:59:48;;;;;;;2.00;1.10;;;;;;;19.77;44.84;98286.97;10541405;28;20052;-63
2022/04/13 18:04:53;;;;;;;3.53;1.00;;;;;;;19.55;45.61;98285.47;10540606;28;20043;-61
2022/04/13 18:09:56;;;;;;;3.72;1.13;;;;;;;19.35;46.74;98282.06;10539040;28;20224;-61
2022/04/13 18:15:00;;;;;;;2.00;0.90;;;;;;;19.17;47.29;98285.53;10538334;28;20136;-65
2022/04/13 18:20:05;;;;;;;4.63;1.02;;;;;;;19.01;48.03;98279.56;10544743;27;20052;-65
2022/04/13 18:25:08;;;;;;;1.65;1.00;;;;;;;18.83;49.00;98287.63;10559078;27;20134;-66
2022/04/13 18:30:14;;;;;;;1.80;0.98;;;;;;;18.68;49.29;98296.09;10545898;28;20084;-68
2022/04/13 18:35:17;;;;;;;3.22;1.25;;;;;;;18.49;49.66;98298.66;10545702;28;20046;-65
2022/04/13 18:40:20;;;;;;;4.47;1.10;;;;;;;18.38;49.82;98300.19;10547019;28;20411;-65
2022/04/13 18:45:30;;;;;;;3.22;1.10;;;;;;;18.27;50.35;98301.69;10556359;28;20040;-66
2022/04/13 18:50:33;;;;;;;4.50;1.08;;;;;;;18.15;50.75;98306.97;10552083;28;20511;-68
2022/04/13 18:55:36;;;;;;;6.20;1.20;;;;;;;18.03;50.67;98314.13;10553086;28;20047;-61
2022/04/13 19:00:41;;;;;;;1.85;1.10;;;;;;;17.94;50.86;98309.91;10552277;28;20065;-63
2022/04/13 19:05:46;;;;;;;2.78;1.13;;;;;;;17.84;51.32;98319.34;10552638;28;21329;-60
2022/04/13 19:10:50;;;;;;;1.67;1.10;;;;;;;17.74;51.84;98316.22;10548692;28;20047;-62
2022/04/13 19:15:54;;;;;;;4.55;1.38;;;;;;;17.66;52.05;98325.44;10545023;28;20392;-62
2022/04/13 19:20:57;;;;;;;1.80;1.30;;;;;;;17.54;52.33;98322.50;10552211;28;20040;-62
2022/04/13 19:26:00;;;;;;;3.78;1.20;;;;;;;17.46;52.41;98324.59;10551587;28;20047;-63
2022/04/13 19:31:05;;;;;;;1.48;1.25;;;;;;;17.34;52.30;98321.66;10554325;28;20040;-64
2022/04/13 19:36:08;;;;;;;3.53;1.30;;;;;;;17.20;52.53;98327.09;10558200;27;20049;-63
2022/04/13 19:41:11;;;;;;;3.72;1.40;;;;;;;17.10;53.05;98322.03;10554201;28;20051;-63
2022/04/13 19:46:16;;;;;;;3.53;1.10;;;;;;;17.04;53.08;98322.00;10548970;28;20119;-61
2022/04/13 19:51:19;;;;;;;2.35;1.05;;;;;;;16.98;52.78;98334.56;10552162;28;20073;-62
2022/04/13 19:56:23;;;;;;;1.88;1.20;;;;;;;16.96;53.17;98338.53;10553624;27;20205;-61
2022/04/13 20:01:27;;;;;;;3.15;1.17;;;;;;;16.87;53.32;98335.97;10549830;28;20049;-62
2022/04/13 20:06:32;;;;;;;5.22;1.45;;;;;;;16.76;53.97;98347.41;10536286;28;20043;-62
2022/04/13 20:11:35;;;;;;;3.90;1.30;;;;;;;16.71;53.70;98344.47;10546821;28;20052;-62
2022/04/13 20:16:40;;;;;;;1.85;1.30;;;;;;;16.70;54.33;98353.69;10545542;28;20074;-62
2022/04/13 20:21:44;;;;;;;3.40;1.33;;;;;;;16.60;56.52;98360.34;10539979;28;20128;-61
2022/04/13 20:26:47;;;;;;;2.65;1.27;;;;;;;16.45;58.22;98360.47;10546317;28;20538;-62
2022/04/13 20:31:51;;;;;;;2.28;1.20;;;;;;;16.32;57.16;98363.94;10545399;28;20054;-62
2022/04/13 20:36:55;;;;;;;2.65;1.40;;;;;;;16.21;57.08;98360.97;10545571;28;20058;-62
2022/04/13 20:41:59;;;;;;;3.67;1.48;;;;;;;16.14;57.04;98363.63;10554048;27;20047;-62
2022/04/13 20:47:05;;;;;;;2.55;1.40;;;;;;;16.13;56.63;98356.50;10543687;27;21348;-62
2022/04/13 20:52:10;;;;;;;3.67;1.45;;;;;;;16.10;57.30;98359.63;10543743;28;20216;-64
2022/04/13 20:57:13;;;;;;;2.47;1.42;;;;;;;16.10;57.59;98365.06;10545811;28;20050;-62
2022/04/13 21:02:18;;;;;;;2.70;1.40;;;;;;;16.12;58.04;98363.81;10544597;28;20123;-62
2022/04/13 21:07:22;;;;;;;2.35;1.42;;;;;;;16.15;58.73;98373.47;10544476;28;20496;-63
2022/04/13 21:12:26;;;;;;;1.80;1.48;;;;;;;16.16;59.53;98377.88;10547308;28;20040;-63
2022/04/13 21:17:31;;;;;;;2.55;1.40;;;;;;;16.16;59.89;98381.41;10547744;28;20122;-63
2022/04/13 21:22:35;;;;;;;3.67;1.42;;;;;;;16.16;60.37;98377.88;10546913;28;20050;-60
2022/04/13 21:27:38;;;;;;;2.33;1.42;;;;;;;16.14;61.29;98372.63;10547974;28;20047;-60
2022/04/13 21:32:43;;;;;;;4.88;1.63;;;;;;;16.10;61.86;98374.06;10550317;28;20040;-61
2022/04/13 21:37:46;;;;;;;2.75;1.50;;;;;;;16.07;62.92;98370.88;10543724;27;20807;-60
2022/04/13 21:42:49;;;;;;;1.67;1.30;;;;;;;16.07;63.53;98376.31;10547504;28;20055;-61
2022/04/13 21:47:54;;;;;;;2.75;1.70;;;;;;;16.01;64.38;98373.38;10544741;28;20042;-60
2022/04/13 21:53:01;;;;;;;3.42;1.60;;;;;;;15.95;67.75;98379.56;10544889;28;20525;-59
2022/04/13 21:58:06;;;;;;;2.92;1.60;;;;;;;15.85;71.78;98374.50;10540506;28;20040;-58
2022/04/13 22:03:10;;;;;;;2.42;1.75;;;;;;;15.80;73.54;98371.50;10543066;28;20197;-59
2022/04/13 22:08:14;;;;;;;2.50;1.67;;;;;;;15.78;74.60;98370.03;10541776;28;20388;-61
2022/04/13 22:13:17;;;;;;;3.60;1.67;;;;;;;15.74;76.21;98371.44;10542291;28;20036;-58
2022/04/13 22:18:22;;;;;;;4.20;1.75;;;;;;;15.66;78.99;98375.97;10549958;28;20124;-62
2022/04/13 22:23:25;;;;;;;2.03;1.63;;;;;;;15.62;80.50;98368.44;10550131;28;20411;-61
2022/04/13 22:28:33;;;;;;;3.67;1.58;;;;;;;15.61;79.34;98373.00;10545722;28;20049;-62
2022/04/13 22:33:37;;;;;;;2.88;1.60;;;;;;;15.55;82.17;98371.06;10549969;28;20118;-62
2022/04/13 22:38:40;;;;;;;2.10;1.50;;;;;;;15.51;82.05;98367.91;10549243;28;20118;-59
2022/04/13 22:43:43;;;;;;;2.53;1.60;;;;;;;15.48;85.18;98370.16;10550400;28;20407;-60
2022/04/13 22:48:48;;;;;;;2.40;1.63;;;;;;;15.45;85.91;98362.41;10549732;28;20393;-61
2022/04/13 22:53:51;;;;;;;5.55;1.80;;;;;;;15.39;87.91;98364.03;10555960;27;20059;-60
2022/04/13 22:58:54;;;;;;;2.38;1.70;;;;;;;15.31;88.88;98362.28;10546387;28;20059;-59
2022/04/13 23:03:58;;;;;;;2.40;1.52;;;;;;;15.18;92.49;98351.28;10549464;28;20047;-62
2022/04/13 23:09:02;;;;;;;3.38;1.80;;;;;;;15.07;92.78;98361.63;10550371;27;20075;-61
2022/04/13 23:14:05;;;;;;;3.80;1.75;;;;;;;14.95;97.74;98357.72;10551253;27;20055;-59
2022/04/13 23:19:10;;;;;;;3.05;1.70;;;;;;;14.90;96.77;98365.59;10551561;28;20054;-61
2022/04/13 23:24:13;;;;;;;2.50;1.70;;;;;;;14.83;98.03;98359.25;10549150;28;20046;-62
2022/04/13 23:29:16;;;;;;;3.40;1.70;;;;;;;14.75;99.35;98363.75;10546011;28;20051;-60
2022/04/13 23:34:21;;;;;;;3.17;1.70;;;;;;;14.64;100.00;98361.50;10545592;28;20130;-61
2022/04/13 23:39:24;;;;;;;3.28;1.90;;;;;;;14.53;100.00;98360.09;10549210;28;20051;-62